Stevens Point, WI (54492)

10:36 PM CDT on July 25, 2016 (GMT -0500)
APRSWXNET | | Change Station

Elev 1082 ft 44.50 °N, 89.56 °W | Updated 13 days ago

Clear
Clear
63 °F
Feels Like 63 °F
N
0
Wind Variable Wind from WNW
Gusts mph

Today
High -- | Low -- °F
--% Chance of Precip.
Yesterday
High -- | Low -- °F
Precip. -- in
Pressure 30.04 in
Visibility 10.0 miles
Clouds Clear
Dew Point 61 °F
Humidity 92%
Rainfall in
Snow Depth Not available.
5:37 AM 8:30 PM
Waning Gibbous, 59% visible
METAR KSTE 260315Z AUTO 00000KT 10SM CLR 18/17 A3004 RMK AO2 T01820166
Pressure 30.04 in
Visibility 10.0 miles
Clouds Clear
Dew Point 61 °F
Humidity 92%
Rainfall in
Snow Depth Not available.
5:37 AM 8:30 PM
Waning Gibbous, 59% visible
METAR KSTE 260315Z AUTO 00000KT 10SM CLR 18/17 A3004 RMK AO2 T01820166

10-Day Weather Forecast

Almanac

Astronomy

Jul. 25, 2016 Rise Set
Actual Time
Civil Twilight
Nautical Twilight
Astronomical Twilight
Moon
Length of Visible Light
Length of Day
Tomorrow will be .
, % of the Moon is Illuminated

Today's Extremes

State Highs State Lows

Community

WunderPhotos

Upload Photos

1,927,522 photos uploaded!

WunderBlog® & News

Nearby

Air Quality

  Air Quality AQ Index Pollutant
Not available.

Snow Depth

Station Depth Elevation

Earthquake Activity

City Distance Mag. Time & Date
Minimum magnitude displayed is 2.5.

Coastal Water Temperatures

Place Temperature

Stations

Nearby Weather Stations

Station Location Temp. Windchill Dew Point Humidity Wind Precip. Elev Updated Type
                   

Watches & Warnings

There are currently no watches in effect.